Time;durP1;ratioP1;P1;durP2;ratioP2;P2;SDS_P1;SDS_P2;PMS_P1;PMS_P2;Temp;Humidity;BMP_temperature;BMP_pressure;BME280_temperature;BME280_humidity;BME280_pressure;Samples;Min_cycle;Max_cycle;Signal;HPM_P1;HPM_P2
2022/07/09 00:01:30;;;;;;;8.07;5.33;;;18.10;99.90;;;;;;5054597;28;20574;-69
2022/07/09 00:03:57;;;;;;;3.73;2.97;;;18.10;99.90;;;;;;5055820;28;20566;-69
2022/07/09 00:06:24;;;;;;;4.10;3.57;;;18.00;99.90;;;;;;5057499;28;20451;-71
2022/07/09 00:08:51;;;;;;;3.90;3.07;;;18.00;99.90;;;;;;5060284;28;20455;-72
2022/07/09 00:11:18;;;;;;;3.30;3.00;;;18.00;99.90;;;;;;5059418;28;20493;-70
2022/07/09 00:13:45;;;;;;;7.87;4.17;;;17.90;99.90;;;;;;5060702;28;20483;-70
2022/07/09 00:16:11;;;;;;;4.37;3.60;;;17.90;99.90;;;;;;5061445;28;20461;-70
2022/07/09 00:18:40;;;;;;;4.80;4.30;;;17.80;99.90;;;;;;5058391;28;20551;-71
2022/07/09 00:21:07;;;;;;;3.80;3.50;;;17.90;99.90;;;;;;5059256;28;23005;-72
2022/07/09 00:23:34;;;;;;;6.90;4.40;;;17.90;99.90;;;;;;5054181;28;27509;-69
2022/07/09 00:26:01;;;;;;;6.20;4.80;;;17.90;99.90;;;;;;5055622;28;20831;-72
2022/07/09 00:28:28;;;;;;;6.10;4.50;;;17.90;99.90;;;;;;5055171;28;20854;-70
2022/07/09 00:30:55;;;;;;;4.50;4.10;;;17.90;99.90;;;;;;5055045;28;20550;-71
2022/07/09 00:33:21;;;;;;;4.87;4.47;;;17.90;99.90;;;;;;5056282;28;20494;-70
2022/07/09 00:35:50;;;;;;;5.70;4.20;;;17.90;99.90;;;;;;5052888;28;20462;-70
2022/07/09 00:38:16;;;;;;;6.10;5.50;;;17.80;99.90;;;;;;5057970;28;20463;-70
2022/07/09 00:40:43;;;;;;;6.63;5.27;;;17.80;99.90;;;;;;5050631;28;20845;-70
2022/07/09 00:43:18;;;;;;;5.77;4.67;;;17.70;99.90;;;;;;5054317;28;20891;-70
2022/07/09 00:45:45;;;;;;;6.23;4.97;;;17.50;99.90;;;;;;5050202;28;20958;-70
2022/07/09 00:48:12;;;;;;;4.30;3.90;;;17.50;99.90;;;;;;5056341;28;20464;-70
2022/07/09 00:50:40;;;;;;;15.40;5.77;;;17.50;99.90;;;;;;5051988;28;20628;-70
2022/07/09 00:53:10;;;;;;;7.63;6.03;;;17.70;99.90;;;;;;5051866;28;20502;-74
2022/07/09 00:55:39;;;;;;;5.40;3.87;;;17.80;99.90;;;;;;5054096;28;20464;-72
2022/07/09 00:58:06;;;;;;;4.77;3.70;;;17.80;99.90;;;;;;5054753;28;20543;-70
2022/07/09 01:00:35;;;;;;;4.47;3.70;;;17.80;99.90;;;;;;5049860;28;20471;-69
2022/07/09 01:03:02;;;;;;;4.20;3.80;;;17.80;99.90;;;;;;5056589;28;20800;-72
2022/07/09 01:05:35;;;;;;;7.77;4.10;;;17.80;99.90;;;;;;5059443;28;20594;-73
2022/07/09 01:08:03;;;;;;;5.07;3.90;;;17.90;99.90;;;;;;5046466;28;20517;-71
2022/07/09 01:10:31;;;;;;;6.67;4.30;;;17.80;99.90;;;;;;5056142;28;20481;-70
2022/07/09 01:12:58;;;;;;;4.93;4.53;;;17.90;99.90;;;;;;5044316;28;20501;-70
2022/07/09 01:15:25;;;;;;;7.00;4.10;;;17.90;99.90;;;;;;5055843;28;20556;-70
2022/07/09 01:17:52;;;;;;;4.50;3.90;;;17.70;99.90;;;;;;5061446;28;20467;-71
2022/07/09 01:20:23;;;;;;;4.63;4.13;;;17.60;99.90;;;;;;5053277;28;20539;-70
2022/07/09 01:22:50;;;;;;;5.57;4.30;;;17.40;99.90;;;;;;5051792;28;20448;-69
2022/07/09 01:25:18;;;;;;;7.57;4.40;;;17.30;99.90;;;;;;5046523;28;20720;-75
2022/07/09 01:27:45;;;;;;;7.23;4.47;;;17.20;99.90;;;;;;5053441;28;20550;-73
2022/07/09 01:30:23;;;;;;;11.00;4.60;;;17.10;99.90;;;;;;5046696;28;20466;-71
2022/07/09 01:32:50;;;;;;;5.70;3.87;;;17.00;99.90;;;;;;5052914;28;20561;-71
2022/07/09 01:35:17;;;;;;;4.73;4.27;;;17.00;99.90;;;;;;5061837;28;20684;-70
2022/07/09 01:37:45;;;;;;;7.93;5.07;;;17.30;99.90;;;;;;5047835;28;20543;-70
2022/07/09 01:40:13;;;;;;;6.07;4.93;;;17.40;99.90;;;;;;5048011;28;20459;-70
2022/07/09 01:42:40;;;;;;;6.83;5.70;;;17.30;99.90;;;;;;5049138;28;20466;-70
2022/07/09 01:45:08;;;;;;;9.03;6.60;;;17.10;99.90;;;;;;5045958;28;20482;-70
2022/07/09 01:47:38;;;;;;;7.53;4.93;;;16.90;99.90;;;;;;5053957;28;20845;-71
2022/07/09 01:50:06;;;;;;;10.60;6.00;;;17.10;99.90;;;;;;5052399;28;20505;-72
2022/07/09 01:52:33;;;;;;;8.57;6.57;;;17.10;99.90;;;;;;5053085;28;20558;-70
2022/07/09 01:55:01;;;;;;;8.17;5.30;;;17.10;99.90;;;;;;5050460;28;20565;-70
2022/07/09 01:57:28;;;;;;;6.77;5.50;;;17.10;99.90;;;;;;5054364;28;20506;-70
2022/07/09 01:59:55;;;;;;;9.43;5.80;;;17.30;99.90;;;;;;5052038;28;20462;-70
2022/07/09 02:02:22;;;;;;;7.27;6.50;;;17.20;99.90;;;;;;5051873;28;20504;-70
2022/07/09 02:04:49;;;;;;;8.13;5.33;;;17.10;99.90;;;;;;5061831;28;20886;-70
2022/07/09 02:07:16;;;;;;;8.73;6.70;;;17.00;99.90;;;;;;5046246;28;20470;-70
2022/07/09 02:09:43;;;;;;;8.40;5.00;;;16.90;99.90;;;;;;5048987;28;21794;-70
2022/07/09 02:12:11;;;;;;;7.10;5.10;;;16.80;99.90;;;;;;5047804;28;20460;-70
2022/07/09 02:14:38;;;;;;;9.13;5.00;;;16.90;99.90;;;;;;5054394;28;20482;-70
2022/07/09 02:17:05;;;;;;;7.27;5.40;;;16.90;99.90;;;;;;5055352;28;20532;-70
2022/07/09 02:19:32;;;;;;;4.87;4.07;;;17.20;99.90;;;;;;5053359;28;20726;-70
2022/07/09 02:21:59;;;;;;;6.10;5.27;;;17.20;99.90;;;;;;5049827;28;20558;-70
2022/07/09 02:24:26;;;;;;;7.57;5.30;;;17.20;99.90;;;;;;5053136;28;20490;-70
2022/07/09 02:26:53;;;;;;;8.20;4.43;;;17.10;99.90;;;;;;5050701;28;20466;-70
2022/07/09 02:29:21;;;;;;;5.73;4.47;;;17.00;99.90;;;;;;5053330;28;20465;-71
2022/07/09 02:31:48;;;;;;;6.30;5.70;;;16.90;99.90;;;;;;5051035;28;20792;-70
2022/07/09 02:34:15;;;;;;;4.80;4.13;;;16.80;99.90;;;;;;5053373;28;20562;-70
2022/07/09 02:36:42;;;;;;;7.50;4.93;;;16.80;99.90;;;;;;5050278;28;20513;-71
2022/07/09 02:39:09;;;;;;;4.73;4.33;;;16.70;99.90;;;;;;5049961;28;20478;-69
2022/07/09 02:41:36;;;;;;;5.73;4.73;;;16.70;99.90;;;;;;5047973;28;20464;-71
2022/07/09 02:44:03;;;;;;;6.50;5.90;;;16.80;99.90;;;;;;5053492;28;20482;-70
2022/07/09 02:46:31;;;;;;;5.33;4.83;;;16.80;99.90;;;;;;5054478;28;20470;-70
2022/07/09 02:48:58;;;;;;;6.67;5.33;;;16.90;99.90;;;;;;5053694;28;21001;-70
2022/07/09 02:51:25;;;;;;;6.63;5.07;;;17.10;99.90;;;;;;5054289;28;20904;-70
2022/07/09 02:53:51;;;;;;;7.80;6.00;;;17.20;99.90;;;;;;5045696;28;20485;-70
2022/07/09 02:56:18;;;;;;;9.27;5.07;;;17.20;99.90;;;;;;5051721;28;20513;-72
2022/07/09 02:58:45;;;;;;;9.33;5.50;;;17.40;99.90;;;;;;5047011;28;20466;-70
2022/07/09 03:01:12;;;;;;;6.17;5.27;;;17.60;99.90;;;;;;5055458;28;20459;-71
2022/07/09 03:03:40;;;;;;;13.23;5.53;;;17.70;99.90;;;;;;5053271;28;20475;-72
2022/07/09 03:06:08;;;;;;;5.03;4.40;;;17.70;99.90;;;;;;5045369;28;20573;-71
2022/07/09 03:08:35;;;;;;;11.03;5.20;;;17.70;99.90;;;;;;5051523;28;20546;-70
2022/07/09 03:11:02;;;;;;;7.27;5.30;;;17.70;99.90;;;;;;5055858;28;20531;-70
2022/07/09 03:13:29;;;;;;;5.10;4.57;;;17.80;99.90;;;;;;5047047;28;20864;-71
2022/07/09 03:15:56;;;;;;;7.90;3.70;;;17.80;99.90;;;;;;5057632;28;20471;-70
2022/07/09 03:18:23;;;;;;;9.33;5.03;;;17.90;99.90;;;;;;5050990;28;20640;-70
2022/07/09 03:20:51;;;;;;;8.50;5.27;;;17.90;99.90;;;;;;5056739;28;20433;-70
2022/07/09 03:23:18;;;;;;;6.87;4.90;;;17.70;99.90;;;;;;5049459;28;20549;-69
2022/07/09 03:25:45;;;;;;;7.50;5.17;;;17.70;99.90;;;;;;5050294;28;20459;-70
2022/07/09 03:28:12;;;;;;;9.20;5.00;;;17.60;99.90;;;;;;5051461;28;20473;-70
2022/07/09 03:30:39;;;;;;;8.53;6.37;;;17.60;99.90;;;;;;5054125;28;20466;-70
2022/07/09 03:33:06;;;;;;;8.37;5.70;;;17.60;99.90;;;;;;5049639;28;20459;-70
2022/07/09 03:35:33;;;;;;;7.33;5.20;;;17.70;99.90;;;;;;5049230;28;20495;-71
2022/07/09 03:38:01;;;;;;;13.93;5.43;;;17.70;99.90;;;;;;5049740;28;20530;-70
2022/07/09 03:40:28;;;;;;;7.60;4.80;;;17.60;99.90;;;;;;5054160;28;20451;-71
2022/07/09 03:42:55;;;;;;;6.87;5.60;;;17.70;99.90;;;;;;5052241;28;21116;-69
2022/07/09 03:45:21;;;;;;;8.90;5.70;;;17.70;99.90;;;;;;5053482;28;20467;-70
2022/07/09 03:47:50;;;;;;;5.30;4.80;;;17.60;99.90;;;;;;5057194;28;20895;-69
2022/07/09 03:50:17;;;;;;;5.27;4.77;;;17.50;99.90;;;;;;5054927;28;20550;-69
2022/07/09 03:52:44;;;;;;;10.13;5.30;;;17.50;99.90;;;;;;5058200;28;20688;-69
2022/07/09 03:55:12;;;;;;;7.73;5.67;;;17.50;99.90;;;;;;5049563;28;20545;-69
2022/07/09 03:57:40;;;;;;;6.40;5.80;;;17.60;99.90;;;;;;5053500;28;20459;-69
2022/07/09 04:00:08;;;;;;;12.80;6.03;;;17.80;99.90;;;;;;5051309;28;20958;-70
2022/07/09 04:02:35;;;;;;;11.40;7.67;;;17.90;99.90;;;;;;5052858;28;20459;-71
2022/07/09 04:05:01;;;;;;;8.07;5.80;;;18.00;99.90;;;;;;5049563;28;20478;-70
2022/07/09 04:07:28;;;;;;;13.40;7.90;;;18.00;99.90;;;;;;5052810;28;20480;-70
2022/07/09 04:09:55;;;;;;;9.87;7.40;;;18.10;99.90;;;;;;5049725;28;20455;-70
2022/07/09 04:12:23;;;;;;;10.93;7.63;;;18.10;99.90;;;;;;5054951;28;20592;-71
2022/07/09 04:14:50;;;;;;;11.63;7.80;;;18.10;99.90;;;;;;5059410;28;20487;-71
2022/07/09 04:17:17;;;;;;;8.27;6.57;;;18.20;99.90;;;;;;5055700;28;20475;-70
2022/07/09 04:19:44;;;;;;;11.40;6.37;;;18.30;99.90;;;;;;5054442;28;20565;-70
2022/07/09 04:22:11;;;;;;;8.43;7.20;;;18.20;99.90;;;;;;5057732;28;21079;-70
2022/07/09 04:24:38;;;;;;;14.10;6.27;;;18.20;99.90;;;;;;5050810;28;21114;-72
2022/07/09 04:27:05;;;;;;;8.77;5.83;;;18.20;99.90;;;;;;5058142;28;20483;-70
2022/07/09 04:29:34;;;;;;;8.47;6.93;;;18.30;99.90;;;;;;5056322;28;20456;-70
2022/07/09 04:32:01;;;;;;;12.50;6.43;;;18.30;99.90;;;;;;5059594;28;20456;-70
2022/07/09 04:34:28;;;;;;;15.90;7.50;;;18.40;99.90;;;;;;5058510;28;20486;-70
2022/07/09 04:36:55;;;;;;;16.33;7.17;;;18.50;99.90;;;;;;5058848;28;20467;-69
2022/07/09 04:39:24;;;;;;;10.93;6.20;;;18.60;99.90;;;;;;5058044;28;20815;-69
2022/07/09 04:41:51;;;;;;;8.13;5.80;;;18.80;99.90;;;;;;5057730;28;20528;-70
2022/07/09 04:44:18;;;;;;;14.40;6.97;;;18.70;99.90;;;;;;5062481;28;20496;-69
2022/07/09 04:46:46;;;;;;;8.87;5.27;;;18.80;99.90;;;;;;5053156;28;20434;-69
2022/07/09 04:49:13;;;;;;;13.40;6.87;;;18.70;99.90;;;;;;5059414;28;20884;-69
2022/07/09 04:51:39;;;;;;;7.60;4.90;;;18.70;99.90;;;;;;5043428;28;20900;-70
2022/07/09 04:54:06;;;;;;;6.40;5.30;;;18.60;99.90;;;;;;5049604;28;20540;-71
2022/07/09 04:56:33;;;;;;;8.43;5.70;;;18.50;99.90;;;;;;5055871;28;20459;-73
2022/07/09 04:59:02;;;;;;;20.23;5.90;;;18.50;99.90;;;;;;5058012;28;21635;-70
2022/07/09 05:01:29;;;;;;;7.93;5.87;;;18.60;99.90;;;;;;5046124;28;20528;-69
2022/07/09 05:03:58;;;;;;;14.10;5.27;;;18.70;99.90;;;;;;5046206;28;20513;-70
2022/07/09 05:06:25;;;;;;;9.63;6.23;;;18.70;99.90;;;;;;5046691;28;20779;-69
2022/07/09 05:08:52;;;;;;;7.97;5.03;;;18.70;99.90;;;;;;5042567;28;20476;-70
2022/07/09 05:11:19;;;;;;;10.20;5.33;;;18.80;99.90;;;;;;5045227;28;20467;-70
2022/07/09 05:13:48;;;;;;;7.63;4.77;;;18.80;99.90;;;;;;5045912;28;20871;-71
2022/07/09 05:16:15;;;;;;;6.93;5.43;;;19.10;99.90;;;;;;5052505;28;20455;-70
2022/07/09 05:18:42;;;;;;;9.13;7.00;;;19.10;99.90;;;;;;5053340;28;20837;-69
2022/07/09 05:21:10;;;;;;;6.87;5.03;;;19.10;99.90;;;;;;5048893;28;20542;-69
2022/07/09 05:23:37;;;;;;;5.07;4.07;;;19.00;99.90;;;;;;5050184;28;20876;-70
2022/07/09 05:26:04;;;;;;;8.73;5.30;;;19.00;99.90;;;;;;5043270;28;21013;-70
2022/07/09 05:28:31;;;;;;;10.20;5.43;;;19.10;99.90;;;;;;5050934;28;20454;-69
2022/07/09 05:30:58;;;;;;;7.90;5.50;;;19.10;99.90;;;;;;5046841;28;20749;-70
2022/07/09 05:33:25;;;;;;;7.30;4.03;;;19.00;99.90;;;;;;5048403;28;20569;-70
2022/07/09 05:35:52;;;;;;;8.40;4.90;;;19.20;99.90;;;;;;5052340;28;20486;-70
2022/07/09 05:38:21;;;;;;;5.90;4.30;;;19.10;99.90;;;;;;5045229;28;20463;-70
2022/07/09 05:40:47;;;;;;;5.93;4.33;;;19.40;99.90;;;;;;5059715;28;20978;-69
2022/07/09 05:43:14;;;;;;;7.17;5.30;;;19.50;99.90;;;;;;5054977;28;20513;-71
2022/07/09 05:45:41;;;;;;;6.63;4.10;;;19.40;99.90;;;;;;5051597;28;20454;-70
2022/07/09 05:48:08;;;;;;;10.00;3.93;;;19.40;99.90;;;;;;5060457;28;20653;-70
2022/07/09 05:50:35;;;;;;;5.83;3.60;;;19.50;99.90;;;;;;5052687;28;20460;-70
2022/07/09 05:53:02;;;;;;;4.83;3.50;;;19.60;99.90;;;;;;5060655;28;20454;-70
2022/07/09 05:55:30;;;;;;;5.33;3.77;;;19.70;99.90;;;;;;5060957;28;20487;-70
2022/07/09 05:57:57;;;;;;;7.80;3.10;;;19.70;99.90;;;;;;5058877;28;20456;-70
2022/07/09 06:00:24;;;;;;;3.53;2.77;;;19.70;99.90;;;;;;5059125;28;20444;-70
2022/07/09 06:02:50;;;;;;;5.50;3.20;;;19.70;99.90;;;;;;5059170;28;20547;-70
2022/07/09 06:05:19;;;;;;;7.20;3.00;;;19.40;99.90;;;;;;5060345;28;20463;-70
2022/07/09 06:07:46;;;;;;;6.03;4.00;;;19.60;99.90;;;;;;5050321;28;20961;-70
2022/07/09 06:10:14;;;;;;;5.30;3.33;;;19.60;99.90;;;;;;5062191;28;20459;-72
2022/07/09 06:12:43;;;;;;;6.80;3.90;;;19.70;99.90;;;;;;5062221;28;20451;-70
2022/07/09 06:15:11;;;;;;;4.17;3.73;;;19.90;99.90;;;;;;5071766;28;20479;-72
2022/07/09 06:17:38;;;;;;;9.90;5.17;;;19.80;99.90;;;;;;5058224;28;20460;-72
2022/07/09 06:20:06;;;;;;;6.83;4.00;;;19.70;99.90;;;;;;5060883;28;20473;-71
2022/07/09 06:22:33;;;;;;;5.60;3.80;;;19.70;99.90;;;;;;5058883;28;20473;-70
2022/07/09 06:25:00;;;;;;;6.63;3.80;;;19.80;99.90;;;;;;5063855;28;20486;-71
2022/07/09 06:27:27;;;;;;;5.33;4.00;;;20.20;99.90;;;;;;5065136;28;20470;-71
2022/07/09 06:29:55;;;;;;;4.50;3.70;;;20.40;99.90;;;;;;5060378;28;20491;-71
2022/07/09 06:32:22;;;;;;;8.73;5.30;;;20.50;99.90;;;;;;5054841;28;20463;-70
2022/07/09 06:34:49;;;;;;;3.97;3.40;;;20.30;99.90;;;;;;5058774;28;20509;-70
2022/07/09 06:37:16;;;;;;;5.80;4.63;;;20.30;99.90;;;;;;5058103;28;20556;-71
2022/07/09 06:39:46;;;;;;;5.93;5.10;;;20.20;99.90;;;;;;5055774;28;21145;-71
2022/07/09 06:42:13;;;;;;;5.60;3.70;;;20.60;99.90;;;;;;5046547;28;20828;-70
2022/07/09 06:44:41;;;;;;;9.13;3.57;;;20.90;99.90;;;;;;5053274;28;20831;-71
2022/07/09 06:47:09;;;;;;;5.10;3.67;;;20.80;99.90;;;;;;5049236;28;20463;-70
2022/07/09 06:49:36;;;;;;;5.40;3.30;;;20.80;99.90;;;;;;5039926;28;20467;-70
2022/07/09 06:52:03;;;;;;;6.60;3.33;;;21.10;99.90;;;;;;5041926;28;20462;-70
2022/07/09 06:54:30;;;;;;;6.50;2.93;;;21.40;99.90;;;;;;5040700;28;20512;-71
2022/07/09 06:56:57;;;;;;;4.60;3.30;;;21.70;99.90;;;;;;5043888;28;20454;-72
2022/07/09 06:59:24;;;;;;;3.20;2.90;;;21.70;99.90;;;;;;5041175;28;20491;-71
2022/07/09 07:01:52;;;;;;;7.63;3.00;;;21.50;99.90;;;;;;5047493;28;20554;-70
2022/07/09 07:04:21;;;;;;;3.00;2.40;;;21.20;99.90;;;;;;5044665;28;20490;-71
2022/07/09 07:06:48;;;;;;;3.00;1.90;;;21.40;99.90;;;;;;5043822;28;20455;-70
2022/07/09 07:09:18;;;;;;;3.37;2.30;;;21.20;99.90;;;;;;5060706;23;21305;-73
2022/07/09 07:11:45;;;;;;;6.13;3.07;;;21.10;99.90;;;;;;5018862;28;20464;-73
2022/07/09 07:14:12;;;;;;;3.03;2.13;;;21.50;99.90;;;;;;5028115;28;20464;-73
2022/07/09 07:16:39;;;;;;;2.57;1.97;;;22.00;99.90;;;;;;5038513;28;20667;-73
2022/07/09 07:19:06;;;;;;;4.73;2.60;;;21.80;99.90;;;;;;5039412;28;20483;-73
2022/07/09 07:21:34;;;;;;;3.47;2.93;;;21.70;99.90;;;;;;5024833;28;20480;-73
2022/07/09 07:24:01;;;;;;;5.13;2.07;;;21.60;99.90;;;;;;5022039;28;20821;-73
2022/07/09 07:26:28;;;;;;;3.10;2.47;;;21.70;99.90;;;;;;5035398;28;20460;-72
2022/07/09 07:28:55;;;;;;;4.17;2.70;;;22.40;99.90;;;;;;5034239;28;20846;-73
2022/07/09 07:31:22;;;;;;;8.90;2.33;;;22.70;99.90;;;;;;5034042;28;20459;-73
2022/07/09 07:33:49;;;;;;;2.00;1.80;;;22.70;99.90;;;;;;5032693;28;20468;-73
2022/07/09 07:36:16;;;;;;;2.57;1.80;;;23.20;99.90;;;;;;5030641;28;22707;-73
2022/07/09 07:38:45;;;;;;;3.40;2.50;;;23.30;99.90;;;;;;5035367;28;20492;-73
2022/07/09 07:41:12;;;;;;;3.03;1.80;;;22.90;99.90;;;;;;5038504;28;21019;-73
2022/07/09 07:43:39;;;;;;;2.97;1.63;;;23.10;99.90;;;;;;5032751;28;20459;-73
2022/07/09 07:46:06;;;;;;;3.20;2.20;;;23.20;99.90;;;;;;5037426;28;20447;-73
2022/07/09 07:48:35;;;;;;;1.97;1.40;;;23.00;99.90;;;;;;5038025;28;21870;-73
2022/07/09 07:51:02;;;;;;;5.73;1.70;;;23.20;99.90;;;;;;5031784;28;20482;-73
2022/07/09 07:53:30;;;;;;;2.03;1.67;;;23.10;99.90;;;;;;5037504;28;20464;-72
2022/07/09 07:55:58;;;;;;;2.00;1.80;;;23.20;99.90;;;;;;5034248;28;20514;-73
2022/07/09 07:58:25;;;;;;;2.37;1.70;;;23.20;99.90;;;;;;5030395;28;20467;-73
2022/07/09 08:00:53;;;;;;;1.80;1.47;;;22.90;99.90;;;;;;5035517;28;21027;-72
2022/07/09 08:03:19;;;;;;;3.77;1.60;;;22.50;99.90;;;;;;5033327;28;22659;-73
2022/07/09 08:05:46;;;;;;;2.07;1.63;;;22.70;99.90;;;;;;5027658;28;20456;-73
2022/07/09 08:08:13;;;;;;;1.87;1.43;;;23.30;99.90;;;;;;5032701;28;20470;-73
2022/07/09 08:10:40;;;;;;;1.67;1.50;;;24.30;99.90;;;;;;5029450;28;21001;-73
2022/07/09 08:13:11;;;;;;;1.50;1.40;;;25.60;99.90;;;;;;5027750;28;20464;-73
2022/07/09 08:15:38;;;;;;;1.90;1.60;;;25.60;99.90;;;;;;5023024;28;21023;-73
2022/07/09 08:18:05;;;;;;;2.67;2.00;;;26.10;99.90;;;;;;5029449;28;20452;-73
2022/07/09 08:20:33;;;;;;;3.57;1.30;;;27.20;99.90;;;;;;5030448;28;20491;-73
2022/07/09 08:23:00;;;;;;;2.50;1.57;;;27.80;99.90;;;;;;5016091;28;20463;-73
2022/07/09 08:25:27;;;;;;;1.97;1.30;;;28.00;99.90;;;;;;5024545;28;20455;-73
2022/07/09 08:27:56;;;;;;;1.90;1.80;;;28.40;99.90;;;;;;5009544;28;20480;-73
2022/07/09 08:30:24;;;;;;;1.60;1.17;;;27.50;99.90;;;;;;5014277;28;20491;-73
2022/07/09 08:32:51;;;;;;;1.70;1.40;;;27.40;99.90;;;;;;5013856;28;20451;-73
2022/07/09 08:35:18;;;;;;;1.60;1.43;;;27.90;99.90;;;;;;5025923;28;20480;-74
2022/07/09 08:37:45;;;;;;;1.47;1.20;;;28.40;99.90;;;;;;5037236;28;20488;-73
2022/07/09 08:40:12;;;;;;;2.03;1.33;;;28.60;99.90;;;;;;5037797;28;20493;-73
2022/07/09 08:42:39;;;;;;;2.03;1.60;;;28.30;99.90;;;;;;5022312;28;20479;-74
2022/07/09 08:45:11;;;;;;;4.00;1.90;;;29.00;99.90;;;;;;5014926;28;21583;-73
2022/07/09 08:47:40;;;;;;;2.67;1.30;;;29.30;99.90;;;;;;5017241;28;20456;-73
2022/07/09 08:50:08;;;;;;;1.93;1.30;;;28.60;99.90;;;;;;5037700;28;21205;-74
2022/07/09 08:52:36;;;;;;;1.53;1.40;;;27.40;99.90;;;;;;5043573;28;20444;-73
2022/07/09 08:55:03;;;;;;;11.50;1.50;;;27.30;99.90;;;;;;5040007;28;20455;-74
2022/07/09 08:57:31;;;;;;;3.63;1.30;;;27.50;99.90;;;;;;5041266;28;20462;-74
2022/07/09 08:59:58;;;;;;;1.77;1.30;;;28.00;99.90;;;;;;5039291;28;20852;-74
2022/07/09 09:02:25;;;;;;;2.87;1.30;;;28.60;99.90;;;;;;5039955;28;20837;-72
2022/07/09 09:04:55;;;;;;;2.90;1.40;;;28.20;99.90;;;;;;5038359;28;20475;-72
2022/07/09 09:07:22;;;;;;;1.93;1.33;;;28.60;99.90;;;;;;5038125;28;20567;-73
2022/07/09 09:09:49;;;;;;;1.93;1.13;;;28.60;99.90;;;;;;5037683;28;21001;-72
2022/07/09 09:12:28;;;;;;;1.67;1.40;;;28.30;99.90;;;;;;5032880;28;20455;-78
2022/07/09 09:14:55;;;;;;;1.97;1.37;;;28.60;99.90;;;;;;5037147;28;20452;-72
2022/07/09 09:17:22;;;;;;;1.40;1.20;;;29.10;99.90;;;;;;5041214;28;20448;-72
2022/07/09 09:19:49;;;;;;;3.33;1.40;;;29.60;99.90;;;;;;5037671;28;21004;-72
2022/07/09 09:22:18;;;;;;;1.50;1.20;;;29.10;99.90;;;;;;5035835;28;20496;-72
2022/07/09 09:24:49;;;;;;;1.27;1.03;;;28.20;99.90;;;;;;5035889;28;20467;-72
2022/07/09 09:27:16;;;;;;;1.67;1.27;;;27.20;99.90;;;;;;5039563;28;20452;-72
2022/07/09 09:29:50;;;;;;;1.50;1.23;;;26.30;99.90;;;;;;5037649;28;20859;-72
2022/07/09 09:32:20;;;;;;;2.37;1.50;;;26.10;99.90;;;;;;5042149;28;20451;-74
2022/07/09 09:34:50;;;;;;;2.27;1.00;;;25.70;99.90;;;;;;5036570;28;20749;-74
2022/07/09 09:37:27;;;;;;;2.00;1.40;;;25.60;99.90;;;;;;5035202;28;20481;-74
2022/07/09 09:39:54;;;;;;;4.60;1.57;;;25.50;99.90;;;;;;5024146;28;20989;-74
2022/07/09 09:42:24;;;;;;;2.40;1.63;;;25.70;99.90;;;;;;5038897;28;20840;-72
2022/07/09 09:44:51;;;;;;;1.90;1.40;;;25.80;99.90;;;;;;5036487;28;20467;-73
2022/07/09 09:47:23;;;;;;;4.93;1.63;;;25.80;99.90;;;;;;5035918;28;20456;-73
2022/07/09 09:49:51;;;;;;;1.30;1.17;;;25.70;99.90;;;;;;5036100;28;20498;-73
2022/07/09 09:52:20;;;;;;;4.43;1.30;;;25.90;99.90;;;;;;5041283;28;20497;-73
2022/07/09 09:54:49;;;;;;;2.80;1.40;;;26.10;99.90;;;;;;5034653;28;20734;-73
2022/07/09 09:57:17;;;;;;;2.10;1.17;;;25.90;99.90;;;;;;5036841;28;21026;-73
2022/07/09 09:59:46;;;;;;;5.43;1.40;;;26.40;99.90;;;;;;5034888;28;21000;-73
2022/07/09 10:02:13;;;;;;;3.63;1.90;;;26.60;99.90;;;;;;5039806;28;20448;-73
2022/07/09 10:04:41;;;;;;;2.03;1.17;;;26.70;99.90;;;;;;5032503;28;20469;-74
2022/07/09 10:07:09;;;;;;;2.83;1.30;;;26.70;99.90;;;;;;5033965;28;20453;-73
2022/07/09 10:09:36;;;;;;;1.87;1.10;;;26.80;99.90;;;;;;5036898;28;20482;-74
2022/07/09 10:12:05;;;;;;;1.57;1.30;;;26.60;99.90;;;;;;5037147;28;20464;-73
2022/07/09 10:14:34;;;;;;;1.70;1.00;;;26.60;99.90;;;;;;5036931;28;20487;-73
2022/07/09 10:17:13;;;;;;;1.80;1.40;;;26.30;99.90;;;;;;5035035;28;20483;-73
2022/07/09 10:19:51;;;;;;;2.43;1.30;;;26.40;99.90;;;;;;5043762;28;20469;-73
2022/07/09 10:22:18;;;;;;;9.03;2.17;;;26.00;99.90;;;;;;5036662;28;20840;-73
2022/07/09 10:24:46;;;;;;;1.63;1.50;;;26.10;99.90;;;;;;5038552;28;20464;-73
2022/07/09 10:27:14;;;;;;;1.70;1.30;;;26.20;99.90;;;;;;5036280;28;20464;-73
2022/07/09 10:29:54;;;;;;;4.37;1.30;;;26.30;99.90;;;;;;5034984;28;20551;-73
2022/07/09 10:32:28;;;;;;;2.00;1.20;;;26.30;99.90;;;;;;5033854;28;20456;-73
2022/07/09 10:34:58;;;;;;;2.63;1.50;;;26.20;99.90;;;;;;5033280;28;20467;-73
2022/07/09 10:37:32;;;;;;;1.97;1.60;;;26.20;99.90;;;;;;5040516;28;20821;-73
2022/07/09 10:40:10;;;;;;;7.87;1.60;;;26.30;99.90;;;;;;5035082;28;20500;-73
2022/07/09 10:42:38;;;;;;;2.23;1.50;;;26.20;99.90;;;;;;5035634;28;20456;-73
2022/07/09 10:45:21;;;;;;;2.43;1.90;;;26.30;99.90;;;;;;5035813;28;20456;-73
2022/07/09 10:47:53;;;;;;;11.13;1.50;;;26.20;99.90;;;;;;5043893;28;20450;-73
2022/07/09 10:50:20;;;;;;;2.10;1.70;;;25.90;99.90;;;;;;5034751;28;20479;-73
2022/07/09 10:52:47;;;;;;;1.73;1.33;;;25.90;99.90;;;;;;5044069;28;20451;-73
2022/07/09 10:55:17;;;;;;;2.47;1.90;;;25.40;99.90;;;;;;5039642;28;20562;-73
2022/07/09 10:57:46;;;;;;;2.37;1.57;;;25.40;99.90;;;;;;5037523;28;20967;-73
2022/07/09 11:00:15;;;;;;;2.27;1.47;;;25.50;99.90;;;;;;5035267;28;20482;-73
2022/07/09 11:02:55;;;;;;;2.30;1.47;;;25.60;99.90;;;;;;5034153;28;20463;-73
2022/07/09 11:05:23;;;;;;;2.90;1.83;;;26.00;99.90;;;;;;5034166;28;20478;-74
2022/07/09 11:08:03;;;;;;;2.20;1.30;;;26.50;99.90;;;;;;5036460;28;21360;-73
2022/07/09 11:10:31;;;;;;;4.33;3.93;;;26.80;99.90;;;;;;5034915;28;20502;-74
2022/07/09 11:13:00;;;;;;;5.37;3.10;;;27.30;99.90;;;;;;5034651;28;20457;-74
2022/07/09 11:15:29;;;;;;;6.90;1.70;;;28.20;99.90;;;;;;5039170;28;20756;-74
2022/07/09 11:18:00;;;;;;;3.30;1.40;;;28.50;99.90;;;;;;5039612;28;20547;-74
2022/07/09 11:20:28;;;;;;;3.20;1.40;;;28.70;99.90;;;;;;5036993;28;20474;-73
2022/07/09 11:22:56;;;;;;;2.30;1.60;;;28.00;99.90;;;;;;5037052;28;20445;-73
2022/07/09 11:25:25;;;;;;;3.50;1.87;;;27.30;99.90;;;;;;5040037;28;20444;-74
2022/07/09 11:27:52;;;;;;;1.90;1.70;;;27.50;99.90;;;;;;5039002;28;20437;-74
2022/07/09 11:30:20;;;;;;;2.20;1.50;;;27.50;99.90;;;;;;5035498;28;20500;-73
2022/07/09 11:32:47;;;;;;;5.53;1.50;;;27.50;99.90;;;;;;5034450;28;20458;-74
2022/07/09 11:35:25;;;;;;;2.50;1.50;;;27.70;99.90;;;;;;5039797;28;20460;-74
2022/07/09 11:37:52;;;;;;;2.13;1.57;;;27.50;99.90;;;;;;5040850;28;20480;-73
2022/07/09 11:40:20;;;;;;;2.13;1.40;;;27.20;99.90;;;;;;5035419;28;20479;-73
2022/07/09 11:42:47;;;;;;;10.23;2.50;;;27.00;99.90;;;;;;5042004;28;20970;-74
2022/07/09 11:45:14;;;;;;;2.13;1.93;;;27.70;99.90;;;;;;5039393;28;20454;-74
2022/07/09 11:47:42;;;;;;;1.87;1.40;;;28.30;99.90;;;;;;5038430;28;20466;-74
2022/07/09 11:50:11;;;;;;;1.73;1.63;;;28.00;99.90;;;;;;5043914;28;20480;-74
2022/07/09 11:52:44;;;;;;;1.67;1.40;;;27.30;99.90;;;;;;5044333;28;20432;-74
2022/07/09 11:55:12;;;;;;;1.53;1.30;;;26.50;99.90;;;;;;5038683;28;21216;-73
2022/07/09 11:57:39;;;;;;;1.90;1.40;;;26.00;99.90;;;;;;5042355;28;20488;-73
2022/07/09 12:00:08;;;;;;;1.60;1.50;;;25.30;99.90;;;;;;5046872;28;20469;-74
2022/07/09 12:02:36;;;;;;;3.07;1.67;;;25.00;99.90;;;;;;5037828;28;20463;-73
2022/07/09 12:05:06;;;;;;;6.33;2.00;;;24.40;99.90;;;;;;5045933;28;20761;-73
2022/07/09 12:07:34;;;;;;;4.77;1.87;;;24.10;99.90;;;;;;5041666;28;20727;-73
2022/07/09 12:10:02;;;;;;;2.57;2.23;;;24.10;99.90;;;;;;5041845;28;20482;-73
2022/07/09 12:12:29;;;;;;;5.23;1.77;;;23.90;99.90;;;;;;5039152;28;20571;-73
2022/07/09 12:14:56;;;;;;;4.17;2.23;;;23.90;99.90;;;;;;5037005;28;20456;-74
2022/07/09 12:17:25;;;;;;;2.10;1.90;;;23.90;99.90;;;;;;5040879;28;20570;-74
2022/07/09 12:19:52;;;;;;;2.23;1.93;;;23.60;99.90;;;;;;5039953;28;20480;-74
2022/07/09 12:22:21;;;;;;;2.43;1.93;;;23.40;99.90;;;;;;5022392;28;20465;-74
2022/07/09 12:24:48;;;;;;;4.63;2.10;;;23.30;99.90;;;;;;5020140;28;20471;-73
2022/07/09 12:27:15;;;;;;;2.27;1.90;;;23.30;99.90;;;;;;5031457;28;20689;-73
2022/07/09 12:29:42;;;;;;;2.10;1.90;;;23.30;99.90;;;;;;5026575;28;20483;-73
2022/07/09 12:32:09;;;;;;;3.60;2.53;;;23.10;99.90;;;;;;5031993;28;20950;-74
2022/07/09 12:34:36;;;;;;;3.27;2.50;;;23.10;99.90;;;;;;5038105;28;20475;-74
2022/07/09 12:37:04;;;;;;;2.40;2.20;;;23.00;99.90;;;;;;5029817;28;20485;-74
2022/07/09 12:39:32;;;;;;;2.63;2.17;;;23.30;99.90;;;;;;5034312;28;20487;-74
2022/07/09 12:41:59;;;;;;;2.53;2.33;;;23.30;99.90;;;;;;5031990;28;20478;-73
2022/07/09 12:44:26;;;;;;;2.47;2.27;;;23.20;99.90;;;;;;5029130;28;20574;-73
2022/07/09 12:46:54;;;;;;;3.97;2.30;;;23.10;99.90;;;;;;5023970;28;20839;-72
2022/07/09 12:49:21;;;;;;;4.63;2.37;;;23.10;99.90;;;;;;5036294;28;20870;-73